Time;durP1;ratioP1;P1;durP2;ratioP2;P2;SDS_P1;SDS_P2;PMS_P1;PMS_P2;Temp;Humidity;BMP_temperature;BMP_pressure;BME280_temperature;BME280_humidity;BME280_pressure;Samples;Min_cycle;Max_cycle;Signal;HPM_P1;HPM_P2
2021/05/10 00:00:05;;;;;;;12.37;10.50;;;19.10;99.90;;;;;;4982217;28;20229;-77
2021/05/10 00:02:50;;;;;;;10.97;9.87;;;19.10;99.90;;;;;;4981095;28;20203;-79
2021/05/10 00:05:35;;;;;;;13.33;10.23;;;19.10;99.90;;;;;;4981494;28;20206;-78
2021/05/10 00:08:22;;;;;;;12.90;11.50;;;18.90;99.90;;;;;;4951622;28;20211;-78
2021/05/10 00:11:06;;;;;;;14.87;12.03;;;19.00;99.90;;;;;;4978297;28;20276;-78
2021/05/10 00:13:53;;;;;;;13.57;12.17;;;19.00;99.90;;;;;;4971235;28;20222;-78
2021/05/10 00:16:39;;;;;;;13.53;11.87;;;19.00;99.90;;;;;;4988208;28;20207;-79
2021/05/10 00:19:23;;;;;;;13.23;11.57;;;18.90;99.90;;;;;;4978098;28;20311;-78
2021/05/10 00:22:08;;;;;;;15.50;11.47;;;18.90;99.90;;;;;;4980477;28;20251;-79
2021/05/10 00:24:53;;;;;;;12.07;10.73;;;18.90;99.90;;;;;;4961841;28;20236;-78
2021/05/10 00:27:38;;;;;;;15.63;11.67;;;18.80;99.90;;;;;;4965350;28;20215;-78
2021/05/10 00:30:26;;;;;;;17.83;11.63;;;18.80;99.90;;;;;;4973543;28;20283;-78
2021/05/10 00:33:11;;;;;;;13.87;12.20;;;18.80;99.90;;;;;;4989864;28;20210;-79
2021/05/10 00:35:56;;;;;;;14.77;12.60;;;18.70;99.90;;;;;;4991983;28;20221;-78
2021/05/10 00:38:40;;;;;;;15.13;12.37;;;18.70;99.90;;;;;;4980283;28;20225;-78
2021/05/10 00:41:26;;;;;;;13.70;12.07;;;18.70;99.90;;;;;;4988050;28;20205;-78
2021/05/10 00:44:11;;;;;;;14.17;12.00;;;18.70;99.90;;;;;;4974254;28;20251;-77
2021/05/10 00:46:56;;;;;;;14.13;11.20;;;18.70;99.90;;;;;;4988420;28;20210;-77
2021/05/10 00:49:41;;;;;;;15.03;11.97;;;18.60;99.90;;;;;;4991062;28;20311;-77
2021/05/10 00:52:26;;;;;;;16.17;12.03;;;18.60;99.90;;;;;;4975199;28;20251;-78
2021/05/10 00:55:14;;;;;;;13.97;12.03;;;18.60;99.90;;;;;;4979794;28;20349;-79
2021/05/10 00:58:02;;;;;;;13.93;11.70;;;18.60;99.90;;;;;;4971326;28;20267;-77
2021/05/10 01:00:46;;;;;;;12.70;11.30;;;18.50;99.90;;;;;;4974028;28;20226;-77
2021/05/10 01:03:32;;;;;;;12.63;11.33;;;18.50;99.90;;;;;;4972132;28;20277;-76
2021/05/10 01:06:16;;;;;;;14.53;11.67;;;18.50;99.90;;;;;;4977223;28;20213;-78
2021/05/10 01:09:02;;;;;;;13.93;10.40;;;18.50;99.90;;;;;;4991039;28;20238;-77
2021/05/10 01:11:47;;;;;;;14.60;11.43;;;18.50;99.90;;;;;;4984833;28;20216;-78
2021/05/10 01:14:33;;;;;;;15.43;11.70;;;18.40;99.90;;;;;;4961277;28;20347;-77
2021/05/10 01:17:18;;;;;;;13.07;11.03;;;18.40;99.90;;;;;;4976627;28;20202;-78
2021/05/10 01:20:05;;;;;;;13.87;11.07;;;18.40;99.90;;;;;;4980288;28;20238;-77
2021/05/10 01:22:53;;;;;;;13.90;11.20;;;18.40;99.90;;;;;;4981242;28;20331;-78
2021/05/10 01:25:38;;;;;;;12.93;11.20;;;18.40;99.90;;;;;;4970542;28;20228;-78
2021/05/10 01:28:23;;;;;;;14.00;10.97;;;18.40;99.90;;;;;;4958213;28;20219;-78
2021/05/10 01:31:08;;;;;;;13.10;9.97;;;18.30;99.90;;;;;;4958629;28;20237;-77
2021/05/10 01:33:53;;;;;;;12.70;11.03;;;18.30;99.90;;;;;;4966755;28;20230;-79
2021/05/10 01:36:38;;;;;;;12.33;11.00;;;18.30;99.90;;;;;;4982176;28;20258;-77
2021/05/10 01:39:23;;;;;;;12.70;10.50;;;18.30;99.90;;;;;;4967892;28;20355;-77
2021/05/10 01:42:08;;;;;;;13.00;10.33;;;18.30;99.90;;;;;;4963509;28;20288;-77
2021/05/10 01:44:53;;;;;;;11.77;10.17;;;18.20;99.90;;;;;;4960459;28;20594;-78
2021/05/10 01:47:38;;;;;;;12.30;10.37;;;18.20;99.90;;;;;;4969449;28;20206;-78
2021/05/10 01:50:23;;;;;;;12.20;10.90;;;18.20;99.90;;;;;;4963457;28;20224;-78
2021/05/10 01:53:09;;;;;;;14.93;10.80;;;18.20;99.90;;;;;;4984497;28;20202;-78
2021/05/10 01:55:55;;;;;;;13.33;10.87;;;18.10;99.90;;;;;;4996108;28;20198;-79
2021/05/10 01:58:39;;;;;;;12.07;10.70;;;18.10;99.90;;;;;;4966503;28;20334;-79
2021/05/10 02:01:24;;;;;;;13.97;11.23;;;18.00;99.90;;;;;;4958434;28;20291;-78
2021/05/10 02:04:09;;;;;;;12.53;10.53;;;18.00;99.90;;;;;;4973123;28;20202;-78
2021/05/10 02:07:01;;;;;;;13.70;10.37;;;18.00;99.90;;;;;;4965495;28;20702;-78
2021/05/10 02:09:46;;;;;;;13.47;10.90;;;17.90;99.90;;;;;;4963886;28;20225;-78
2021/05/10 02:12:33;;;;;;;13.33;10.73;;;17.90;99.90;;;;;;4958765;28;20255;-78
2021/05/10 02:15:18;;;;;;;13.23;10.67;;;17.90;99.90;;;;;;4960145;28;20286;-78
2021/05/10 02:18:04;;;;;;;13.03;10.63;;;17.80;99.90;;;;;;4973575;28;20743;-78
2021/05/10 02:20:50;;;;;;;12.27;10.33;;;17.80;99.90;;;;;;4961536;28;20273;-78
2021/05/10 02:23:37;;;;;;;13.90;11.50;;;17.80;99.90;;;;;;4964921;28;20303;-78
2021/05/10 02:26:21;;;;;;;13.33;9.60;;;17.70;99.90;;;;;;4974417;28;20210;-78
2021/05/10 02:29:07;;;;;;;9.93;6.47;;;17.70;99.90;;;;;;4984418;28;20638;-77
2021/05/10 02:31:52;;;;;;;3.97;2.70;;;17.70;99.90;;;;;;4966345;28;20815;-78
2021/05/10 02:34:39;;;;;;;2.80;2.33;;;17.70;99.90;;;;;;4973993;28;20213;-77
2021/05/10 02:37:23;;;;;;;5.33;1.87;;;17.70;99.90;;;;;;4974701;28;20827;-77
2021/05/10 02:40:09;;;;;;;4.73;2.03;;;17.70;99.90;;;;;;4963822;28;20237;-78
2021/05/10 02:42:54;;;;;;;3.57;2.13;;;17.70;99.90;;;;;;4966707;28;20565;-79
2021/05/10 02:45:40;;;;;;;4.00;1.63;;;17.80;99.90;;;;;;4954537;28;20207;-78
2021/05/10 02:48:25;;;;;;;3.80;1.70;;;17.90;99.90;;;;;;4972226;28;20206;-78
2021/05/10 02:51:10;;;;;;;3.63;2.23;;;18.00;99.90;;;;;;4972017;28;20221;-78
2021/05/10 02:53:55;;;;;;;2.60;1.73;;;18.10;99.90;;;;;;4968459;28;20220;-77
2021/05/10 02:56:40;;;;;;;3.57;1.90;;;18.20;99.90;;;;;;4974372;28;20210;-80
2021/05/10 02:59:25;;;;;;;4.57;1.87;;;18.40;99.90;;;;;;4969216;28;20220;-78
2021/05/10 03:02:11;;;;;;;3.97;1.70;;;18.50;99.90;;;;;;4967093;28;20580;-77
2021/05/10 03:04:55;;;;;;;4.07;1.53;;;18.60;99.90;;;;;;4979294;28;20261;-78
2021/05/10 03:07:41;;;;;;;2.57;1.60;;;18.70;99.90;;;;;;4973172;28;20219;-78
2021/05/10 03:10:26;;;;;;;3.17;1.70;;;18.90;99.90;;;;;;4980837;28;20242;-77
2021/05/10 03:13:11;;;;;;;2.20;1.70;;;18.80;99.90;;;;;;4968888;28;20750;-78
2021/05/10 03:15:57;;;;;;;3.67;2.17;;;18.70;99.90;;;;;;4969083;28;20200;-78
2021/05/10 03:18:43;;;;;;;3.27;1.60;;;18.70;99.90;;;;;;4972797;28;20215;-77
2021/05/10 03:21:27;;;;;;;3.97;2.10;;;18.70;99.90;;;;;;4973899;28;20552;-78
2021/05/10 03:24:12;;;;;;;3.20;2.00;;;18.60;99.90;;;;;;4973600;28;20239;-78
2021/05/10 03:26:58;;;;;;;7.13;1.77;;;18.40;99.90;;;;;;4970569;28;20219;-78
2021/05/10 03:29:42;;;;;;;3.10;1.53;;;18.40;99.90;;;;;;4965170;28;20318;-77
2021/05/10 03:32:27;;;;;;;5.80;1.90;;;18.20;99.90;;;;;;4975557;28;20228;-78
2021/05/10 03:35:14;;;;;;;5.87;1.40;;;18.20;99.90;;;;;;4962322;28;20266;-78
2021/05/10 03:37:59;;;;;;;3.33;1.70;;;18.10;99.90;;;;;;4973531;28;21304;-78
2021/05/10 03:40:44;;;;;;;5.60;2.00;;;18.00;99.90;;;;;;4971738;28;20229;-78
2021/05/10 03:43:28;;;;;;;3.73;1.67;;;17.90;99.90;;;;;;4972122;28;20224;-78
2021/05/10 03:46:13;;;;;;;5.97;1.90;;;17.90;99.90;;;;;;4969273;28;20288;-77
2021/05/10 03:48:57;;;;;;;2.90;1.87;;;17.90;99.90;;;;;;4961945;28;20583;-78
2021/05/10 03:51:43;;;;;;;4.33;1.47;;;17.90;99.90;;;;;;4955566;28;20234;-78
2021/05/10 03:54:28;;;;;;;6.63;1.60;;;17.90;99.90;;;;;;4970462;28;20801;-79
2021/05/10 03:57:12;;;;;;;4.97;1.60;;;18.00;99.90;;;;;;4962817;28;20265;-76
2021/05/10 03:59:57;;;;;;;4.33;1.70;;;18.00;99.90;;;;;;4971196;28;20227;-77
2021/05/10 04:02:43;;;;;;;3.77;1.50;;;18.10;99.90;;;;;;4962978;28;20246;-78
2021/05/10 04:05:45;;;;;;;2.07;1.23;;;18.20;99.90;;;;;;4959142;28;20206;-78
2021/05/10 04:08:48;;;;;;;3.67;1.77;;;18.30;99.90;;;;;;4956858;28;20683;-77
2021/05/10 04:14:38;;;;;;;3.60;1.60;;;18.50;99.90;;;;;;4954926;28;20206;-78
2021/05/10 04:17:23;;;;;;;5.77;1.67;;;18.50;99.90;;;;;;4958198;28;20338;-78
2021/05/10 04:20:09;;;;;;;3.87;1.60;;;18.60;99.90;;;;;;4954716;28;20673;-77
2021/05/10 04:22:54;;;;;;;3.00;1.43;;;18.70;99.90;;;;;;4960980;28;20209;-77
2021/05/10 04:25:40;;;;;;;4.70;1.43;;;18.80;99.90;;;;;;4958407;28;20257;-78
2021/05/10 04:28:25;;;;;;;6.57;1.50;;;18.90;99.90;;;;;;4965056;28;20232;-77
2021/05/10 04:31:09;;;;;;;3.23;1.67;;;19.10;99.90;;;;;;4963323;28;20309;-77
2021/05/10 04:33:54;;;;;;;3.43;1.60;;;19.10;99.90;;;;;;4972973;28;20298;-77
2021/05/10 04:36:39;;;;;;;3.63;1.47;;;19.20;99.90;;;;;;4971803;28;20207;-79
2021/05/10 04:39:24;;;;;;;4.40;1.40;;;19.30;99.90;;;;;;4960179;28;20227;-78
2021/05/10 04:42:09;;;;;;;5.30;1.53;;;19.40;99.90;;;;;;4975104;28;20236;-77
2021/05/10 04:44:54;;;;;;;6.50;1.70;;;19.50;99.90;;;;;;4960609;28;20252;-78
2021/05/10 04:47:41;;;;;;;3.93;1.70;;;19.60;99.90;;;;;;4967972;28;20248;-78
2021/05/10 04:50:26;;;;;;;3.87;1.30;;;19.70;99.90;;;;;;4965341;28;20232;-77
2021/05/10 04:53:21;;;;;;;2.93;1.27;;;19.70;99.90;;;;;;4958293;28;20296;-77
2021/05/10 04:56:12;;;;;;;4.73;1.67;;;19.80;99.90;;;;;;4963789;28;20980;-78
2021/05/10 04:58:58;;;;;;;3.73;1.43;;;19.80;99.90;;;;;;4982257;28;20223;-78
2021/05/10 05:01:43;;;;;;;3.07;1.43;;;19.80;99.90;;;;;;4976070;28;20215;-80
2021/05/10 05:04:28;;;;;;;4.43;1.30;;;19.70;99.90;;;;;;4957158;28;20739;-79
2021/05/10 05:07:12;;;;;;;3.03;1.50;;;19.60;99.90;;;;;;4967542;28;20244;-79
2021/05/10 05:09:58;;;;;;;2.57;1.87;;;19.60;99.90;;;;;;4968034;28;20312;-78
2021/05/10 05:12:43;;;;;;;5.37;1.80;;;19.70;99.90;;;;;;4971117;28;20219;-77
2021/05/10 05:15:28;;;;;;;3.20;1.40;;;19.70;99.90;;;;;;4972895;28;20585;-79
2021/05/10 05:18:13;;;;;;;9.00;2.07;;;19.80;99.90;;;;;;4970233;28;20235;-78
2021/05/10 05:20:58;;;;;;;7.03;1.70;;;20.10;99.90;;;;;;4963185;28;20321;-78
2021/05/10 05:23:43;;;;;;;8.10;1.83;;;20.00;99.90;;;;;;4958744;28;20993;-77
2021/05/10 05:26:28;;;;;;;5.33;1.20;;;20.00;99.90;;;;;;4973905;28;20208;-78
2021/05/10 05:29:12;;;;;;;8.17;2.10;;;20.10;99.90;;;;;;4971597;28;20603;-78
2021/05/10 05:31:59;;;;;;;2.37;1.23;;;20.10;99.90;;;;;;4972932;28;20906;-77
2021/05/10 05:34:44;;;;;;;2.13;1.30;;;20.20;99.90;;;;;;4969640;28;20573;-78
2021/05/10 05:37:29;;;;;;;4.47;1.50;;;20.20;99.90;;;;;;4968237;28;20244;-78
2021/05/10 05:40:15;;;;;;;3.57;1.17;;;20.20;99.90;;;;;;4972693;28;20332;-75
2021/05/10 05:42:59;;;;;;;1.40;1.00;;;20.20;99.90;;;;;;4981974;28;20222;-79
2021/05/10 05:45:44;;;;;;;4.07;1.30;;;20.20;99.90;;;;;;4969469;28;20751;-78
2021/05/10 05:48:32;;;;;;;3.90;1.20;;;20.20;99.90;;;;;;4972129;28;20705;-78
2021/05/10 05:51:17;;;;;;;2.43;1.10;;;20.10;99.90;;;;;;4970011;28;20226;-78
2021/05/10 05:54:02;;;;;;;3.67;1.17;;;20.10;99.90;;;;;;4964438;28;20234;-77
2021/05/10 05:56:47;;;;;;;2.90;0.80;;;20.10;99.90;;;;;;4964369;28;20214;-78
2021/05/10 05:59:32;;;;;;;3.57;1.10;;;20.10;99.90;;;;;;4960851;28;20607;-78
2021/05/10 06:02:16;;;;;;;0.93;0.87;;;20.00;99.90;;;;;;4966740;28;20913;-78
2021/05/10 06:05:02;;;;;;;1.53;0.57;;;20.00;99.90;;;;;;4970266;28;20206;-77
2021/05/10 06:07:48;;;;;;;1.17;0.77;;;20.00;99.90;;;;;;4973779;28;20260;-78
2021/05/10 06:10:33;;;;;;;1.80;0.63;;;19.90;99.90;;;;;;4967182;28;20275;-78
2021/05/10 06:13:18;;;;;;;1.67;0.80;;;19.90;99.90;;;;;;4965198;28;20214;-77
2021/05/10 06:16:04;;;;;;;3.60;1.17;;;19.90;99.90;;;;;;4969687;28;20712;-78
2021/05/10 06:18:48;;;;;;;2.57;1.30;;;19.80;99.90;;;;;;4966262;28;20206;-78
2021/05/10 06:21:34;;;;;;;2.67;1.50;;;19.80;99.90;;;;;;4971927;28;20207;-78
2021/05/10 06:24:19;;;;;;;2.17;1.33;;;19.70;99.90;;;;;;4970287;28;20216;-75
2021/05/10 06:27:04;;;;;;;1.63;1.20;;;19.70;99.90;;;;;;4971653;28;20233;-78
2021/05/10 06:29:49;;;;;;;2.03;1.10;;;19.60;99.90;;;;;;4964973;28;20233;-78
2021/05/10 06:32:33;;;;;;;3.60;1.40;;;19.60;99.90;;;;;;4967757;28;20248;-76
2021/05/10 06:35:18;;;;;;;3.10;0.87;;;19.60;99.90;;;;;;4976772;28;20213;-75
2021/05/10 06:38:04;;;;;;;6.37;1.13;;;19.50;99.90;;;;;;4969414;28;20394;-77
2021/05/10 06:40:49;;;;;;;0.93;0.67;;;19.40;99.90;;;;;;4971014;28;20311;-77
2021/05/10 06:43:33;;;;;;;4.20;0.70;;;19.40;99.90;;;;;;4967803;28;20230;-75
2021/05/10 06:46:18;;;;;;;2.47;0.73;;;19.40;99.90;;;;;;4969455;28;20204;-77
2021/05/10 06:49:03;;;;;;;1.73;0.90;;;19.40;99.90;;;;;;4975639;28;20260;-78
2021/05/10 06:51:48;;;;;;;2.17;0.70;;;19.40;99.90;;;;;;4971675;28;20212;-78
2021/05/10 06:54:34;;;;;;;1.00;0.80;;;19.40;99.90;;;;;;4970431;28;20695;-78
2021/05/10 06:57:19;;;;;;;0.60;0.50;;;19.40;99.90;;;;;;4956588;28;20691;-78
2021/05/10 07:00:05;;;;;;;1.10;0.63;;;19.50;99.90;;;;;;4966501;28;20234;-77
2021/05/10 07:02:50;;;;;;;1.53;0.90;;;19.50;99.90;;;;;;4969664;28;20219;-76
2021/05/10 07:05:35;;;;;;;3.30;1.20;;;19.60;99.90;;;;;;4974956;28;20246;-77
2021/05/10 07:08:20;;;;;;;1.67;1.03;;;19.70;99.90;;;;;;4980406;28;20232;-76
2021/05/10 07:11:06;;;;;;;1.10;0.97;;;19.70;99.90;;;;;;4973630;28;20332;-77
2021/05/10 07:13:51;;;;;;;2.43;1.10;;;19.80;99.90;;;;;;4964934;28;20211;-77
2021/05/10 07:16:36;;;;;;;3.30;1.07;;;19.90;99.90;;;;;;4968846;28;20209;-78
2021/05/10 07:19:20;;;;;;;2.80;1.30;;;19.90;99.90;;;;;;4963621;28;20285;-77
2021/05/10 07:22:07;;;;;;;3.13;1.20;;;19.90;99.90;;;;;;4969885;28;20962;-76
2021/05/10 07:24:52;;;;;;;3.03;1.30;;;19.90;99.90;;;;;;4966694;28;20747;-76
2021/05/10 07:27:37;;;;;;;2.23;1.10;;;19.90;99.90;;;;;;4966306;28;20275;-76
2021/05/10 07:30:22;;;;;;;1.83;1.00;;;19.90;99.90;;;;;;4965468;28;20255;-75
2021/05/10 07:33:08;;;;;;;2.43;1.37;;;20.00;99.90;;;;;;4970061;28;20279;-77
2021/05/10 07:35:53;;;;;;;5.17;1.30;;;20.00;99.90;;;;;;4959990;28;20348;-76
2021/05/10 07:38:38;;;;;;;1.57;1.17;;;20.10;99.90;;;;;;4965778;28;20412;-75
2021/05/10 07:41:23;;;;;;;2.27;1.43;;;20.10;99.90;;;;;;4966122;28;20220;-77
2021/05/10 07:44:09;;;;;;;3.10;1.97;;;20.20;99.90;;;;;;4966931;28;20210;-76
2021/05/10 07:46:53;;;;;;;2.23;1.20;;;20.30;99.90;;;;;;4969360;28;20240;-75
2021/05/10 07:49:38;;;;;;;1.00;0.90;;;20.40;99.90;;;;;;4967388;28;20234;-76
2021/05/10 07:52:23;;;;;;;2.77;1.20;;;20.50;99.90;;;;;;4971691;28;20386;-76
2021/05/10 07:55:09;;;;;;;5.93;1.27;;;20.50;99.90;;;;;;4970299;28;20344;-76
2021/05/10 07:57:54;;;;;;;5.90;1.47;;;20.50;99.90;;;;;;4968665;28;20248;-77
2021/05/10 08:00:42;;;;;;;2.60;1.33;;;20.50;99.90;;;;;;4965336;28;20576;-77
2021/05/10 08:03:29;;;;;;;3.13;1.67;;;20.50;99.90;;;;;;4991049;28;20212;-77
2021/05/10 08:06:13;;;;;;;12.47;1.50;;;20.50;99.90;;;;;;4987863;28;20209;-76
2021/05/10 08:08:58;;;;;;;3.30;1.47;;;20.40;99.90;;;;;;4959281;28;20253;-77
2021/05/10 08:11:43;;;;;;;4.63;1.50;;;20.40;99.90;;;;;;4959189;28;20447;-78
2021/05/10 08:14:29;;;;;;;2.63;1.30;;;20.30;99.90;;;;;;4968607;28;20216;-77
2021/05/10 08:17:15;;;;;;;2.60;1.70;;;20.30;99.90;;;;;;4964312;28;20220;-77
2021/05/10 08:20:00;;;;;;;1.43;1.17;;;20.20;99.90;;;;;;4961614;28;20612;-78
2021/05/10 08:22:45;;;;;;;1.67;1.40;;;20.20;99.90;;;;;;4964532;28;20208;-77
2021/05/10 08:25:30;;;;;;;3.03;1.27;;;20.10;99.90;;;;;;4966416;28;20212;-77
2021/05/10 08:28:14;;;;;;;2.43;1.40;;;20.10;99.90;;;;;;4963037;28;20218;-78
2021/05/10 08:30:59;;;;;;;2.07;1.60;;;20.30;99.90;;;;;;4961177;28;20291;-77
2021/05/10 08:33:45;;;;;;;1.50;1.40;;;20.00;99.90;;;;;;4972393;28;20814;-76
2021/05/10 08:36:29;;;;;;;2.30;1.47;;;20.20;99.90;;;;;;4966079;28;20212;-77
2021/05/10 08:39:14;;;;;;;2.27;1.30;;;20.20;99.90;;;;;;4966803;28;20243;-77
2021/05/10 08:41:59;;;;;;;2.40;1.43;;;20.20;99.90;;;;;;4963199;28;20247;-77
2021/05/10 08:44:44;;;;;;;3.93;1.50;;;20.30;99.90;;;;;;4975909;28;20217;-77
2021/05/10 08:47:32;;;;;;;1.93;1.23;;;20.30;99.90;;;;;;4967951;28;20220;-77
2021/05/10 08:50:19;;;;;;;3.93;1.37;;;20.30;99.90;;;;;;4969640;28;20729;-77
2021/05/10 08:53:04;;;;;;;2.63;1.10;;;20.30;99.90;;;;;;4979109;28;20822;-76
2021/05/10 08:55:50;;;;;;;3.30;1.17;;;20.30;99.90;;;;;;4972796;28;20689;-77
2021/05/10 08:58:39;;;;;;;2.93;1.50;;;20.30;99.90;;;;;;4971513;28;21025;-77
2021/05/10 09:01:25;;;;;;;3.47;1.43;;;20.20;99.90;;;;;;4966356;28;20203;-76
2021/05/10 09:04:10;;;;;;;2.07;1.30;;;20.00;99.90;;;;;;4967591;28;20248;-76
2021/05/10 09:07:11;;;;;;;1.63;1.10;;;19.90;99.90;;;;;;4966748;28;20728;-76
2021/05/10 09:09:58;;;;;;;1.70;1.20;;;19.80;99.90;;;;;;4974552;28;20226;-76
2021/05/10 09:12:45;;;;;;;1.77;1.30;;;19.80;99.90;;;;;;4976705;28;20266;-77
2021/05/10 09:15:32;;;;;;;1.83;1.30;;;19.70;99.90;;;;;;4966169;28;20568;-77
2021/05/10 09:18:21;;;;;;;3.27;1.60;;;19.70;99.90;;;;;;4966795;28;20212;-77
2021/05/10 09:21:11;;;;;;;3.03;1.20;;;19.60;99.90;;;;;;4961931;28;20609;-76
2021/05/10 09:23:58;;;;;;;2.70;1.63;;;19.50;99.90;;;;;;4975456;28;20214;-76
2021/05/10 09:26:43;;;;;;;1.93;0.93;;;19.40;99.90;;;;;;4980632;28;20246;-76
2021/05/10 09:29:28;;;;;;;3.73;1.53;;;19.20;99.90;;;;;;4964827;28;20245;-75
2021/05/10 09:32:25;;;;;;;3.37;1.40;;;19.00;99.90;;;;;;4961806;28;20232;-75
2021/05/10 09:35:25;;;;;;;2.60;1.70;;;18.90;99.90;;;;;;4969463;28;20218;-75
2021/05/10 09:38:10;;;;;;;1.83;1.30;;;18.80;99.90;;;;;;4969678;28;20225;-75
2021/05/10 09:40:57;;;;;;;4.87;2.03;;;18.80;99.90;;;;;;4966598;28;20233;-76
2021/05/10 09:43:42;;;;;;;1.20;1.10;;;18.80;99.90;;;;;;4976533;28;20214;-76
2021/05/10 09:46:38;;;;;;;3.63;1.30;;;18.80;99.90;;;;;;4979334;28;20209;-74
2021/05/10 09:49:41;;;;;;;2.93;1.50;;;18.80;99.90;;;;;;4965106;28;20230;-75
2021/05/10 09:52:27;;;;;;;3.40;1.80;;;18.90;99.90;;;;;;4981886;28;20224;-75
2021/05/10 09:55:12;;;;;;;2.43;1.87;;;19.00;99.90;;;;;;4960410;28;20245;-75
2021/05/10 09:57:58;;;;;;;3.90;2.40;;;19.00;99.90;;;;;;4965516;28;20258;-75
2021/05/10 10:00:43;;;;;;;1.63;1.53;;;19.10;99.90;;;;;;4966245;28;20241;-77
2021/05/10 10:03:36;;;;;;;3.70;2.50;;;19.10;99.90;;;;;;4954245;28;20290;-76
2021/05/10 10:06:20;;;;;;;3.20;2.43;;;19.10;99.90;;;;;;4972074;28;20213;-76
2021/05/10 10:09:07;;;;;;;3.30;1.70;;;19.20;99.90;;;;;;4962020;28;20212;-75
2021/05/10 10:11:51;;;;;;;2.77;1.70;;;19.20;99.90;;;;;;4965974;28;20255;-76
2021/05/10 10:14:38;;;;;;;3.43;2.07;;;19.30;99.90;;;;;;4977599;28;20218;-75
2021/05/10 10:17:24;;;;;;;3.43;2.13;;;19.30;99.90;;;;;;4967130;28;20209;-76
2021/05/10 10:20:10;;;;;;;3.03;1.90;;;19.40;99.90;;;;;;4974518;28;20238;-76
2021/05/10 10:22:55;;;;;;;2.50;1.97;;;19.40;99.90;;;;;;4969303;28;20210;-76
2021/05/10 10:25:40;;;;;;;4.07;2.20;;;19.50;99.90;;;;;;4969389;28;20231;-78
2021/05/10 10:28:27;;;;;;;3.40;2.53;;;19.60;99.90;;;;;;4965546;28;20218;-76
2021/05/10 10:31:17;;;;;;;4.53;2.63;;;19.70;99.90;;;;;;4967166;28;20237;-76
2021/05/10 10:34:05;;;;;;;4.53;2.53;;;19.80;99.90;;;;;;4965692;28;20258;-76
2021/05/10 10:36:54;;;;;;;5.33;2.70;;;19.90;99.90;;;;;;4965447;28;20663;-76
2021/05/10 10:39:50;;;;;;;3.60;2.70;;;20.10;99.90;;;;;;4963447;28;20250;-76
2021/05/10 10:42:34;;;;;;;6.00;2.63;;;20.30;99.90;;;;;;4967053;28;20217;-76
2021/05/10 10:45:25;;;;;;;3.87;2.33;;;20.40;99.90;;;;;;4974914;28;20654;-76
2021/05/10 10:48:11;;;;;;;3.30;2.50;;;20.50;99.90;;;;;;4963938;28;20219;-76
2021/05/10 10:51:00;;;;;;;3.83;2.53;;;20.60;99.90;;;;;;4965764;28;20761;-77
2021/05/10 10:53:46;;;;;;;3.87;2.67;;;20.60;99.90;;;;;;4963344;28;20485;-77
2021/05/10 10:56:53;;;;;;;4.43;2.97;;;20.60;99.90;;;;;;4969127;28;20669;-77
2021/05/10 10:59:39;;;;;;;4.03;2.50;;;20.50;99.90;;;;;;4967470;28;20244;-78
2021/05/10 11:02:27;;;;;;;3.80;2.60;;;20.50;99.90;;;;;;4969571;28;20213;-78
2021/05/10 11:05:15;;;;;;;3.23;2.70;;;20.50;99.90;;;;;;4969194;28;20569;-78
2021/05/10 11:08:02;;;;;;;3.30;2.37;;;20.50;99.90;;;;;;4982169;28;20240;-78
2021/05/10 11:10:49;;;;;;;3.67;2.40;;;20.50;99.90;;;;;;4991001;28;20241;-81
2021/05/10 11:13:39;;;;;;;3.10;2.80;;;20.50;99.90;;;;;;4971265;28;20292;-77
2021/05/10 11:16:44;;;;;;;3.90;2.80;;;20.50;99.90;;;;;;4970662;28;20213;-77
2021/05/10 11:19:33;;;;;;;4.97;2.67;;;20.50;99.90;;;;;;4954393;28;20265;-78
2021/05/10 11:22:38;;;;;;;3.97;3.07;;;20.70;99.90;;;;;;4970144;28;20220;-78
2021/05/10 11:25:36;;;;;;;4.57;2.43;;;20.90;99.90;;;;;;4965371;28;20252;-77
2021/05/10 11:28:43;;;;;;;3.17;2.80;;;21.00;99.90;;;;;;4968730;28;20320;-77
2021/05/10 11:31:37;;;;;;;3.47;2.50;;;21.10;99.90;;;;;;4968227;28;20628;-76
2021/05/10 11:34:28;;;;;;;3.70;2.70;;;21.10;99.90;;;;;;4969629;28;20209;-76
2021/05/10 11:37:14;;;;;;;5.30;3.70;;;21.10;99.90;;;;;;4969924;28;20342;-76
2021/05/10 11:39:59;;;;;;;3.87;3.47;;;21.10;99.90;;;;;;4969770;28;20282;-76
2021/05/10 11:42:44;;;;;;;6.43;3.90;;;21.00;99.90;;;;;;4962241;28;20203;-77
2021/05/10 11:45:42;;;;;;;3.70;3.40;;;20.90;99.90;;;;;;4969054;28;20207;-78
2021/05/10 11:48:39;;;;;;;4.13;3.37;;;20.70;99.90;;;;;;4952954;28;20203;-78
2021/05/10 11:51:24;;;;;;;5.90;3.67;;;20.50;99.90;;;;;;4969797;28;20707;-81
2021/05/10 11:54:10;;;;;;;6.37;3.50;;;20.40;99.90;;;;;;4972575;28;20243;-79
2021/05/10 11:56:58;;;;;;;5.47;2.97;;;20.30;99.90;;;;;;4967604;28;20212;-79
2021/05/10 11:59:45;;;;;;;4.73;3.07;;;20.30;99.90;;;;;;4956014;28;20267;-80
2021/05/10 12:02:31;;;;;;;3.37;3.07;;;20.20;99.90;;;;;;4964869;28;20217;-75
2021/05/10 12:05:16;;;;;;;3.43;2.90;;;20.20;99.90;;;;;;4971576;28;20206;-75
2021/05/10 12:08:01;;;;;;;7.00;3.20;;;20.20;99.90;;;;;;4965059;28;20276;-75
2021/05/10 12:10:46;;;;;;;5.27;3.40;;;20.30;99.90;;;;;;4966478;28;20233;-75
2021/05/10 12:13:31;;;;;;;5.20;2.43;;;20.40;99.90;;;;;;4971697;28;20209;-75
2021/05/10 12:16:16;;;;;;;6.73;3.20;;;20.70;99.90;;;;;;4966365;28;20208;-75
2021/05/10 12:19:01;;;;;;;6.23;3.33;;;21.10;99.90;;;;;;4969021;28;20699;-76
2021/05/10 12:21:46;;;;;;;7.00;2.90;;;21.70;99.90;;;;;;4961930;28;20268;-76
2021/05/10 12:24:30;;;;;;;3.83;2.77;;;22.60;99.90;;;;;;4966610;28;20237;-76
2021/05/10 12:27:15;;;;;;;2.77;2.53;;;23.60;99.90;;;;;;4963199;28;20304;-76
2021/05/10 12:30:01;;;;;;;4.67;2.97;;;24.80;99.90;;;;;;4971041;28;20254;-77
2021/05/10 12:32:49;;;;;;;4.80;2.70;;;25.70;99.90;;;;;;4973200;28;20595;-77
2021/05/10 12:35:36;;;;;;;3.17;2.53;;;26.50;99.90;;;;;;4965655;28;20213;-77
2021/05/10 12:38:26;;;;;;;3.17;2.80;;;27.10;99.90;;;;;;4961070;28;20225;-75
2021/05/10 12:41:20;;;;;;;12.80;4.15;;;27.50;99.90;;;;;;4974469;28;20763;-76
2021/05/10 12:44:10;;;;;;;4.53;3.33;;;27.80;99.90;;;;;;4972216;28;20232;-76
2021/05/10 12:46:55;;;;;;;3.22;2.88;;;28.00;98.30;;;;;;4967905;28;20208;-75
2021/05/10 12:49:44;;;;;;;3.42;2.60;;;28.00;98.80;;;;;;4970991;28;20324;-75
2021/05/10 12:52:29;;;;;;;5.65;2.50;;;27.90;97.00;;;;;;4979358;28;20640;-76
2021/05/10 12:55:17;;;;;;;3.13;2.25;;;28.00;94.40;;;;;;4973073;28;20252;-76
2021/05/10 12:58:17;;;;;;;4.30;2.40;;;28.00;93.90;;;;;;4972163;28;20687;-77
2021/05/10 13:01:13;;;;;;;3.03;2.55;;;28.30;92.20;;;;;;4971099;28;20719;-77
2021/05/10 13:04:03;;;;;;;4.32;2.63;;;28.50;91.80;;;;;;4965143;28;20288;-76
2021/05/10 13:06:55;;;;;;;4.13;2.38;;;28.80;88.70;;;;;;4961243;28;20211;-76
2021/05/10 13:09:40;;;;;;;3.90;2.05;;;28.90;88.20;;;;;;4970044;28;20245;-75
2021/05/10 13:12:26;;;;;;;3.45;2.50;;;29.10;84.10;;;;;;4957483;28;20217;-76
2021/05/10 13:15:30;;;;;;;3.83;2.20;;;29.10;81.60;;;;;;4966835;28;20597;-76
2021/05/10 13:18:25;;;;;;;4.07;2.35;;;29.10;82.30;;;;;;4957938;28;20527;-76
2021/05/10 13:22:02;;;;;;;2.97;2.53;;;29.00;80.30;;;;;;4965791;28;20254;-78
2021/05/10 13:31:25;;;;;;;4.63;2.33;;;28.00;80.30;;;;;;4886512;29;20743;-75
2021/05/10 13:34:21;;;;;;;5.95;2.40;;;27.60;80.50;;;;;;4962071;28;20205;-76
2021/05/10 13:37:08;;;;;;;4.45;2.50;;;27.10;80.00;;;;;;4970791;28;20219;-75
2021/05/10 13:39:53;;;;;;;5.32;2.75;;;26.80;80.80;;;;;;4977600;28;20723;-74
2021/05/10 13:42:41;;;;;;;5.63;2.30;;;26.40;82.70;;;;;;4975053;28;20233;-74
2021/05/10 13:45:25;;;;;;;5.43;2.80;;;26.10;84.50;;;;;;4965752;28;20209;-74
2021/05/10 13:48:10;;;;;;;3.70;2.50;;;25.80;85.10;;;;;;4971975;28;20224;-75
2021/05/10 13:50:55;;;;;;;5.53;3.03;;;25.40;85.40;;;;;;4962966;28;20237;-75
2021/05/10 13:53:41;;;;;;;5.93;2.50;;;25.20;87.90;;;;;;4971171;28;20223;-75
2021/05/10 13:56:26;;;;;;;6.10;2.30;;;25.20;90.70;;;;;;4961291;28;20348;-75
2021/05/10 13:59:11;;;;;;;4.53;2.10;;;25.40;88.00;;;;;;4958013;28;20266;-75
2021/05/10 14:01:56;;;;;;;4.00;2.03;;;25.80;84.90;;;;;;4959408;28;20245;-76
2021/05/10 14:04:40;;;;;;;3.87;1.93;;;26.20;86.50;;;;;;4970120;28;20225;-75
2021/05/10 14:07:25;;;;;;;4.03;1.77;;;26.80;78.00;;;;;;4971532;28;20210;-76
2021/05/10 14:10:12;;;;;;;2.67;1.42;;;27.30;77.30;;;;;;4961429;28;20245;-76
2021/05/10 14:12:57;;;;;;;4.40;1.83;;;27.90;76.60;;;;;;4971379;28;20248;-76
2021/05/10 14:15:42;;;;;;;6.95;1.73;;;28.40;73.60;;;;;;4980170;28;20240;-77
2021/05/10 14:18:29;;;;;;;3.10;1.40;;;28.80;73.20;;;;;;4975340;28;20267;-77
2021/05/10 14:24:19;;;;;;;3.25;1.75;;;29.30;76.90;;;;;;4968075;28;20207;-75
2021/05/10 14:27:07;;;;;;;3.25;1.48;;;29.60;67.70;;;;;;4961170;28;20260;-78
2021/05/10 14:29:52;;;;;;;4.13;1.50;;;29.80;68.90;;;;;;4970901;28;20714;-77
2021/05/10 14:32:36;;;;;;;5.78;1.55;;;30.00;66.50;;;;;;4973663;28;20308;-76
2021/05/10 14:35:21;;;;;;;5.13;1.65;;;30.10;65.00;;;;;;4971796;28;20220;-77